^^
Saratoga-Weather Station Historical Data
Daily Summary for May 11, 2020 Units:  English    Metric   Both
Daily Weekly Monthly Yearly Custom
  High: Low: Average:
Temperature: 62.8 °F 39.9 °F 46.9 °F
Dew Point: 59.5 °F 38.7 °F 44.2 °F
Humidity: 95% 80% 90%
Wind Speed: 13mph 0mph 2.5mph
Wind Gust: 17mph - -
Wind- - SSW
Pressure: 30 in 29.6 in -
Precipitation: 0.43 in    
Historical Graphs
 
 
Tabular Data for May 11, 2020
Time Temperature Dew Point Pressure Wind Wind Speed Wind Gust Humidity Rainfall Rate (Hourly) solar
00:04 62.8 °F 59.5 °F 29.6 in WNW 2 mph 6 mph 89% 0 in 0 W/m2
00:09 62.6 °F 59.4 °F 29.6 in Calm   5 mph 89% 0 in 0 W/m2
00:14 62.4 °F 59.2 °F 29.6 in Calm   1 mph 89% 0 in 0 W/m2
00:19 62.4 °F 59.2 °F 29.6 in ENE 2.9 mph 4 mph 89% 0 in 0 W/m2
00:24 62.2 °F 59 °F 29.6 in ESE 0.9 mph 2 mph 89% 0 in 0 W/m2
00:29 62.1 °F 58.5 °F 29.6 in NNW 2 mph 3 mph 88% 0 in 0 W/m2
00:34 62.1 °F 58.5 °F 29.6 in SW 2.9 mph 9 mph 88% 0 in 0 W/m2
00:39 62.1 °F 58.5 °F 29.6 in NW 0.9 mph 4 mph 88% 0 in 0 W/m2
00:44 61.9 °F 58.3 °F 29.6 in West 2.9 mph 9 mph 88% 0 in 0 W/m2
00:49 61.9 °F 58.3 °F 29.6 in North 2.9 mph 5 mph 88% 0 in 0 W/m2
00:54 61.7 °F 58.1 °F 29.6 in East 0.9 mph 6 mph 88% 0 in 0 W/m2
00:59 61.5 °F 57.9 °F 29.6 in West 6 mph 7 mph 88% 0 in 0 W/m2
01:04 61.3 °F 57.7 °F 29.6 in West 2.9 mph 4 mph 88% 0 in 0 W/m2
01:09 61.3 °F 57.7 °F 29.6 in Calm   1 mph 88% 0 in 0 W/m2
01:14 61.2 °F 57.9 °F 29.6 in Calm   3 mph 89% 0 in 0 W/m2
01:19 61.2 °F 57.9 °F 29.6 in NW 0.9 mph 8 mph 89% 0 in 0 W/m2
01:24 61 °F 57.7 °F 29.6 in NE 2 mph 4 mph 89% 0 in 0 W/m2
01:29 61 °F 57.7 °F 29.6 in WNW 2 mph 8 mph 89% 0 in 0 W/m2
01:34 61 °F 57.7 °F 29.6 in Calm   3 mph 89% 0 in 0 W/m2
01:39 60.8 °F 57.6 °F 29.6 in NNE 2.9 mph 7 mph 89% 0 in 0 W/m2
01:44 60.6 °F 57.4 °F 29.6 in Calm   2 mph 89% 0 in 0 W/m2
01:49 60.6 °F 57 °F 29.6 in ESE 2 mph 7 mph 88% 0 in 0 W/m2
01:54 60.6 °F 57 °F 29.6 in NNW 6 mph 7 mph 88% 0 in 0 W/m2
01:59 60.6 °F 57 °F 29.6 in ESE 4 mph 6 mph 88% 0 in 0 W/m2
02:04 60.6 °F 57 °F 29.6 in NE 0.9 mph 5 mph 88% 0 in 0 W/m2
02:09 60.4 °F 57.2 °F 29.6 in WNW 0.9 mph 5 mph 89% 0 in 0 W/m2
02:14 60.4 °F 57.2 °F 29.6 in NW 2 mph 8 mph 89% 0 in 0 W/m2
02:19 60.3 °F 57 °F 29.6 in SSE 2 mph 5 mph 89% 0.01 in 0 W/m2
02:24 60.1 °F 56.8 °F 29.6 in ENE 2 mph 5 mph 89% 0.01 in 0 W/m2
02:29 59.7 °F 56.1 °F 29.6 in SE 2.9 mph 10 mph 88% 0.02 in 0 W/m2
02:34 59 °F 55.4 °F 29.6 in SW 0.9 mph 4 mph 88% 0.03 in 0 W/m2
02:39 58.3 °F 55 °F 29.6 in NNW 0.9 mph 10 mph 89% 0.05 in 0 W/m2
02:44 57.7 °F 54.9 °F 29.6 in West 2.9 mph 10 mph 90% 0.06 in 0 W/m2
02:49 57.6 °F 54.7 °F 29.6 in NE 2 mph 5 mph 90% 0.08 in 0 W/m2
02:54 57 °F 54.5 °F 29.6 in WNW 2 mph 6 mph 91% 0.08 in 0 W/m2
02:59 56.7 °F 54.1 °F 29.6 in WNW 6.9 mph 8 mph 91% 0.09 in 0 W/m2
03:04 56.1 °F 53.6 °F 29.6 in South 0.9 mph 4 mph 91% 0.1 in 0 W/m2
03:09 55.9 °F 53.4 °F 29.6 in East 0.9 mph 3 mph 91% 0.11 in 0 W/m2
03:14 55.6 °F 53.2 °F 29.6 in North 2.9 mph 6 mph 92% 0.12 in 0 W/m2
03:19 55.2 °F 52.9 °F 29.6 in NW 2.9 mph 3 mph 92% 0.12 in 0 W/m2
03:24 55 °F 52.7 °F 29.6 in Calm   3 mph 92% 0.13 in 0 W/m2
03:29 55 °F 52.7 °F 29.6 in West 2 mph 9 mph 92% 0.12 in 0 W/m2
03:34 54.7 °F 52.3 °F 29.6 in NE 2 mph 11 mph 92% 0.11 in 0 W/m2
03:39 54.3 °F 52 °F 29.6 in NNW 2.9 mph 4 mph 92% 0.09 in 0 W/m2
03:44 54 °F 51.6 °F 29.6 in NNW 4 mph 9 mph 92% 0.08 in 0 W/m2
03:49 53.6 °F 51.3 °F 29.6 in NNE 2.9 mph 7 mph 92% 0.06 in 0 W/m2
03:54 53.2 °F 50.9 °F 29.6 in SSW 2.9 mph 7 mph 92% 0.06 in 0 W/m2
03:59 53.1 °F 50.7 °F 29.6 in NW 4 mph 5 mph 92% 0.06 in 0 W/m2
04:04 52.9 °F 50.5 °F 29.6 in ENE 0.9 mph 2 mph 92% 0.05 in 0 W/m2
04:09 52.5 °F 50.2 °F 29.6 in WNW 4.9 mph 8 mph 92% 0.05 in 0 W/m2
04:14 52.3 °F 50 °F 29.6 in NW 4 mph 5 mph 92% 0.05 in 0 W/m2
04:19 52.2 °F 49.8 °F 29.6 in WNW 2.9 mph 8 mph 92% 0.05 in 0 W/m2
04:24 51.8 °F 49.6 °F 29.6 in WNW 8.1 mph 8 mph 92% 0.04 in 0 W/m2
04:29 51.4 °F 49.3 °F 29.6 in West 2 mph 4 mph 92% 0.04 in 0 W/m2
04:34 51.3 °F 49.1 °F 29.6 in South 4 mph 8 mph 92% 0.03 in 0 W/m2
04:39 50.9 °F 48.7 °F 29.6 in WNW 6.9 mph 8 mph 92% 0.04 in 0 W/m2
04:44 50.5 °F 48.4 °F 29.6 in NE 4 mph 9 mph 92% 0.04 in 0 W/m2
04:49 50.4 °F 48.2 °F 29.6 in West 0.9 mph 4 mph 92% 0.04 in 0 W/m2
04:55 50.2 °F 48 °F 29.6 in NW 2 mph 9 mph 92% 0.04 in 0 W/m2
05:00 49.8 °F 47.7 °F 29.6 in WNW 2.9 mph 11 mph 92% 0.04 in 0 W/m2
05:05 49.6 °F 47.5 °F 29.6 in NNW 0.9 mph 9 mph 92% 0.04 in 0 W/m2
05:10 49.5 °F 47.3 °F 29.6 in NW 0.9 mph 9 mph 92% 0.03 in 0 W/m2
05:15 49.3 °F 47.1 °F 29.6 in NNW 8.9 mph 9 mph 92% 0.02 in 0 W/m2
05:20 48.9 °F 46.8 °F 29.6 in WSW 4 mph 4 mph 92% 0.02 in 0 W/m2
05:25 48.7 °F 46.6 °F 29.6 in SSW 2 mph 6 mph 92% 0.02 in 0 W/m2
05:30 48.4 °F 46.2 °F 29.6 in WNW 4 mph 15 mph 92% 0.03 in 0 W/m2
05:35 48 °F 45.9 °F 29.6 in NW 4 mph 12 mph 92% 0.02 in 0 W/m2
05:40 47.7 °F 45.5 °F 29.6 in WSW 2.9 mph 15 mph 92% 0.02 in 0 W/m2
05:45 47.5 °F 45.3 °F 29.6 in North 2.9 mph 11 mph 92% 0.02 in 0 W/m2
05:50 47.3 °F 45.1 °F 29.6 in WNW 4 mph 12 mph 92% 0.03 in 0 W/m2
05:55 46.9 °F 44.8 °F 29.6 in WSW 8.1 mph 9 mph 92% 0.03 in 0 W/m2
06:01 46.8 °F 44.6 °F 29.6 in NNW 6 mph 12 mph 92% 0.02 in 0 W/m2
06:06 46.6 °F 44.4 °F 29.6 in WNW 8.1 mph 12 mph 92% 0.02 in 0 W/m2
06:11 46.2 °F 44.1 °F 29.6 in West 10.1 mph 11 mph 92% 0.02 in 0 W/m2
06:16 46 °F 43.5 °F 29.6 in NNW 6 mph 9 mph 91% 0.02 in 0 W/m2
06:21 45.9 °F 43.3 °F 29.6 in NNW 2 mph 10 mph 91% 0.02 in 0 W/m2
06:26 45.7 °F 43.5 °F 29.6 in NW 13 mph 13 mph 92% 0.02 in 0 W/m2
06:31 45.5 °F 43 °F 29.6 in West 6.9 mph 7 mph 91% 0.01 in 0 W/m2
06:36 45.3 °F 42.8 °F 29.6 in ENE 2 mph 5 mph 91% 0.02 in 0 W/m2
06:41 45.1 °F 43 °F 29.6 in NW 8.9 mph 9 mph 92% 0.02 in 5 W/m2
06:46 45.1 °F 43 °F 29.6 in SE 2 mph 11 mph 92% 0.02 in 7 W/m2
06:51 44.8 °F 42.3 °F 29.6 in NW 2.9 mph 10 mph 91% 0.02 in 7 W/m2
06:56 44.6 °F 42.1 °F 29.6 in SW 4.9 mph 9 mph 91% 0.02 in 9 W/m2
07:01 44.2 °F 42.1 °F 29.6 in East 2 mph 10 mph 92% 0.02 in 11 W/m2
07:06 44.1 °F 41.5 °F 29.6 in NNE 8.1 mph 10 mph 91% 0.02 in 7 W/m2
07:11 43.9 °F 41.7 °F 29.6 in West 6 mph 14 mph 92% 0.03 in 7 W/m2
07:16 43.7 °F 41.5 °F 29.6 in North 8.1 mph 10 mph 92% 0.03 in 7 W/m2
07:21 43.5 °F 41.4 °F 29.6 in North 4 mph 7 mph 92% 0.03 in 9 W/m2
07:26 43.3 °F 41.2 °F 29.6 in SSW 0.9 mph 5 mph 92% 0.04 in 11 W/m2
07:31 43.3 °F 41.2 °F 29.6 in North 2.9 mph 14 mph 92% 0.04 in 12 W/m2
07:36 43.2 °F 41 °F 29.6 in NNE 8.9 mph 10 mph 92% 0.03 in 14 W/m2
07:41 43 °F 40.8 °F 29.6 in North 2.9 mph 14 mph 92% 0.03 in 14 W/m2
07:46 43 °F 40.8 °F 29.6 in ENE 6 mph 11 mph 92% 0.02 in 16 W/m2
07:51 43 °F 40.8 °F 29.6 in North 8.9 mph 12 mph 92% 0.02 in 14 W/m2
07:56 43 °F 40.8 °F 29.6 in NE 6 mph 9 mph 92% 0.02 in 16 W/m2
08:01 42.8 °F 40.6 °F 29.6 in NNW 4.9 mph 13 mph 92% 0.02 in 18 W/m2
08:06 42.6 °F 40.5 °F 29.6 in West 2.9 mph 12 mph 92% 0.02 in 21 W/m2
08:11 42.6 °F 40.5 °F 29.6 in ESE 4 mph 10 mph 92% 0.02 in 19 W/m2
08:16 42.4 °F 40.3 °F 29.6 in NNE 2.9 mph 12 mph 92% 0.02 in 23 W/m2
08:21 42.4 °F 40.3 °F 29.6 in NE 2 mph 4 mph 92% 0.02 in 30 W/m2
08:26 42.4 °F 40.3 °F 29.6 in NNW 4.9 mph 11 mph 92% 0.01 in 32 W/m2
08:31 42.4 °F 40.3 °F 29.6 in West 0.9 mph 7 mph 92% 0.02 in 28 W/m2
08:36 42.3 °F 40.1 °F 29.6 in West 6 mph 9 mph 92% 0.02 in 28 W/m2
08:41 42.3 °F 40.1 °F 29.6 in East 4 mph 7 mph 92% 0.02 in 30 W/m2
08:46 42.3 °F 40.1 °F 29.6 in NW 8.9 mph 12 mph 92% 0.02 in 30 W/m2
08:51 42.3 °F 40.1 °F 29.6 in WSW 0.9 mph 8 mph 92% 0.02 in 33 W/m2
08:56 42.1 °F 39.9 °F 29.6 in WNW 8.1 mph 13 mph 92% 0.02 in 40 W/m2
09:01 42.3 °F 40.1 °F 29.6 in East 2 mph 6 mph 92% 0.02 in 44 W/m2
09:06 42.3 °F 40.1 °F 29.6 in NE 2 mph 6 mph 92% 0.01 in 35 W/m2
09:11 42.3 °F 40.1 °F 29.6 in NNE 2 mph 7 mph 92% 0.01 in 35 W/m2
09:16 42.3 °F 40.1 °F 29.6 in NNW 6 mph 11 mph 92% 0.02 in 35 W/m2
09:21 42.3 °F 40.1 °F 29.6 in North 4 mph 4 mph 92% 0.02 in 35 W/m2
09:26 42.3 °F 40.1 °F 29.6 in NW 4 mph 12 mph 92% 0.02 in 35 W/m2
09:31 42.3 °F 40.1 °F 29.6 in NW 6.9 mph 7 mph 92% 0.01 in 32 W/m2
09:36 42.3 °F 40.1 °F 29.6 in NNW 2.9 mph 8 mph 92% 0.01 in 35 W/m2
09:41 42.3 °F 40.1 °F 29.6 in ESE 2.9 mph 9 mph 92% 0.01 in 37 W/m2
09:46 42.3 °F 40.1 °F 29.6 in West 4 mph 12 mph 92% 0.01 in 37 W/m2
09:51 42.3 °F 40.1 °F 29.6 in NE 2.9 mph 5 mph 92% 0.01 in 39 W/m2
09:56 42.3 °F 39.7 °F 29.6 in NNW 2.9 mph 8 mph 91% 0.01 in 37 W/m2
10:01 42.3 °F 40.1 °F 29.6 in ENE 4.9 mph 6 mph 92% 0.01 in 37 W/m2
10:06 42.3 °F 40.1 °F 29.6 in NNW 4.9 mph 17 mph 92% 0.01 in 39 W/m2
10:11 42.3 °F 39.7 °F 29.6 in SSW 2.9 mph 8 mph 91% 0.01 in 44 W/m2
10:16 42.3 °F 39.7 °F 29.6 in WNW 6.9 mph 17 mph 91% 0 in 44 W/m2
10:22 42.3 °F 39.7 °F 29.6 in North 2.9 mph 14 mph 91% 0 in 51 W/m2
10:27 42.3 °F 40.1 °F 29.6 in NW 11 mph 16 mph 92% 0.01 in 54 W/m2
10:32 42.1 °F 39.9 °F 29.6 in NNW 10.1 mph 10 mph 92% 0.01 in 56 W/m2
10:37 42.1 °F 39.6 °F 29.6 in East 6.9 mph 11 mph 91% 0.01 in 58 W/m2
10:42 42.1 °F 39.6 °F 29.6 in NNE 8.9 mph 9 mph 91% 0.01 in 65 W/m2
10:47 42.1 °F 39.6 °F 29.7 in ENE 6.9 mph 11 mph 91% 0.01 in 58 W/m2
10:52 42.1 °F 39.6 °F 29.7 in WSW 4.9 mph 11 mph 91% 0.01 in 63 W/m2
10:57 42.1 °F 39.6 °F 29.7 in SE 4 mph 12 mph 91% 0.01 in 62 W/m2
11:02 42.1 °F 39.6 °F 29.7 in North 13 mph 13 mph 91% 0.01 in 62 W/m2
11:07 42.1 °F 39.6 °F 29.7 in NNW 6 mph 15 mph 91% 0.02 in 54 W/m2
11:12 42.1 °F 39.6 °F 29.7 in SSW 2 mph 7 mph 91% 0.02 in 58 W/m2
11:17 42.1 °F 39.6 °F 29.7 in East 2 mph 9 mph 91% 0.02 in 53 W/m2
11:22 42.1 °F 39.6 °F 29.7 in WNW 8.9 mph 9 mph 91% 0.02 in 62 W/m2
11:27 41.9 °F 39.4 °F 29.7 in WSW 2 mph 9 mph 91% 0.02 in 65 W/m2
11:32 41.7 °F 39 °F 29.7 in NNE 4.9 mph 10 mph 90% 0.02 in 81 W/m2
11:37 41.7 °F 39 °F 29.7 in WNW 8.9 mph 14 mph 90% 0.02 in 86 W/m2
11:42 41.9 °F 39.2 °F 29.7 in West 4 mph 11 mph 90% 0.03 in 95 W/m2
11:47 41.9 °F 39.2 °F 29.7 in NW 4 mph 14 mph 90% 0.03 in 105 W/m2
11:52 42.1 °F 39.6 °F 29.7 in East 2.9 mph 6 mph 91% 0.03 in 102 W/m2
11:57 42.1 °F 39.6 °F 29.7 in SE 2 mph 8 mph 91% 0.04 in 91 W/m2
12:02 42.1 °F 39.6 °F 29.7 in ENE 0.9 mph 5 mph 91% 0.04 in 95 W/m2
12:07 41.9 °F 39.4 °F 29.7 in SSW 4 mph 9 mph 91% 0.04 in 100 W/m2
12:12 41.9 °F 39.4 °F 29.7 in NE 4 mph 11 mph 91% 0.04 in 97 W/m2
12:17 41.9 °F 39.2 °F 29.7 in ENE 4.9 mph 12 mph 90% 0.03 in 102 W/m2
12:22 41.7 °F 39 °F 29.7 in SSE 2 mph 15 mph 90% 0.04 in 105 W/m2
12:27 41.7 °F 39 °F 29.7 in ENE 4 mph 4 mph 90% 0.04 in 97 W/m2
12:32 41.7 °F 39 °F 29.7 in WSW 8.9 mph 10 mph 90% 0.04 in 90 W/m2
12:37 41.7 °F 39 °F 29.7 in SE 4 mph 8 mph 90% 0.04 in 93 W/m2
12:42 41.7 °F 39 °F 29.7 in SW 4 mph 7 mph 90% 0.04 in 107 W/m2
12:47 41.7 °F 39 °F 29.7 in ESE 10.1 mph 14 mph 90% 0.04 in 118 W/m2
12:52 41.7 °F 39 °F 29.7 in ENE 4 mph 5 mph 90% 0.05 in 142 W/m2
12:57 41.7 °F 39 °F 29.7 in ENE 2.9 mph 14 mph 90% 0.04 in 146 W/m2
13:03 41.9 °F 39.2 °F 29.7 in East 6.9 mph 8 mph 90% 0.03 in 141 W/m2
13:08 41.9 °F 39.2 °F 29.7 in South 2 mph 5 mph 90% 0.03 in 125 W/m2
13:13 41.9 °F 39.2 °F 29.7 in NNW 2.9 mph 5 mph 90% 0.04 in 132 W/m2
13:18 42.1 °F 39.4 °F 29.7 in ENE 2 mph 6 mph 90% 0.04 in 128 W/m2
13:23 41.9 °F 39.2 °F 29.7 in NW 2.9 mph 9 mph 90% 0.04 in 144 W/m2
13:28 42.1 °F 39.4 °F 29.7 in East 4 mph 9 mph 90% 0.04 in 135 W/m2
13:33 42.1 °F 39.4 °F 29.7 in SSE 2 mph 11 mph 90% 0.03 in 128 W/m2
13:38 42.1 °F 39.6 °F 29.7 in ESE 4 mph 4 mph 91% 0.04 in 142 W/m2
13:43 42.3 °F 39.7 °F 29.7 in NNE 2.9 mph 5 mph 91% 0.03 in 148 W/m2
13:48 42.3 °F 39.6 °F 29.7 in SE 2 mph 5 mph 90% 0.04 in 142 W/m2
13:53 42.3 °F 39.6 °F 29.7 in SSE 2.9 mph 7 mph 90% 0.03 in 132 W/m2
13:58 42.3 °F 39.6 °F 29.7 in NNW 2 mph 4 mph 90% 0.03 in 120 W/m2
14:03 42.3 °F 39.6 °F 29.7 in ENE 2 mph 13 mph 90% 0.04 in 116 W/m2
14:08 42.4 °F 39.4 °F 29.7 in NW 0.9 mph 6 mph 89% 0.04 in 113 W/m2
14:13 42.4 °F 39.4 °F 29.7 in WSW 2 mph 14 mph 89% 0.03 in 105 W/m2
14:18 42.4 °F 39.4 °F 29.7 in NNE 2.9 mph 4 mph 89% 0.04 in 114 W/m2
14:23 42.6 °F 39.6 °F 29.7 in ESE 2 mph 14 mph 89% 0.03 in 118 W/m2
14:28 42.6 °F 39.6 °F 29.7 in ESE 0.9 mph 5 mph 89% 0.03 in 116 W/m2
14:33 42.6 °F 39.6 °F 29.7 in East 2 mph 8 mph 89% 0.03 in 120 W/m2
14:38 43 °F 40.3 °F 29.7 in North 2 mph 4 mph 90% 0.02 in 121 W/m2
14:43 43 °F 40.3 °F 29.7 in ESE 2 mph 6 mph 90% 0.02 in 125 W/m2
14:48 43.2 °F 40.5 °F 29.7 in NW 2 mph 7 mph 90% 0.02 in 137 W/m2
14:53 43.3 °F 40.3 °F 29.7 in WNW 2 mph 5 mph 89% 0.02 in 149 W/m2
14:58 43.5 °F 40.5 °F 29.7 in SSE 0.9 mph 7 mph 89% 0.02 in 151 W/m2
15:03 43.7 °F 41 °F 29.7 in NE 2 mph 6 mph 90% 0.02 in 141 W/m2
15:08 43.9 °F 40.8 °F 29.7 in ENE 4.9 mph 5 mph 89% 0.02 in 141 W/m2
15:13 43.9 °F 40.8 °F 29.7 in WNW 0.9 mph 7 mph 89% 0.02 in 142 W/m2
15:18 44.1 °F 41 °F 29.8 in NE 2.9 mph 8 mph 89% 0.02 in 141 W/m2
15:23 44.1 °F 40.8 °F 29.8 in SE 2 mph 5 mph 88% 0.02 in 141 W/m2
15:28 44.2 °F 41.2 °F 29.8 in NE 2.9 mph 4 mph 89% 0.02 in 146 W/m2
15:33 44.2 °F 41.2 °F 29.8 in East 0.9 mph 2 mph 89% 0.02 in 148 W/m2
15:38 44.6 °F 41.9 °F 29.8 in East 0.9 mph 1 mph 90% 0.02 in 156 W/m2
15:43 44.8 °F 42.3 °F 29.8 in Calm   1 mph 91% 0.02 in 172 W/m2
15:48 45 °F 42.4 °F 29.8 in Calm   1 mph 91% 0.02 in 163 W/m2
15:53 45.1 °F 42.6 °F 29.8 in East 0.9 mph 2 mph 91% 0.02 in 171 W/m2
15:58 45.1 °F 42.6 °F 29.8 in East 0.9 mph 2 mph 91% 0.02 in 185 W/m2
16:03 45.1 °F 42.6 °F 29.8 in Calm   2 mph 91% 0.01 in 185 W/m2
16:08 45.3 °F 42.8 °F 29.8 in Calm   2 mph 91% 0.01 in 183 W/m2
16:13 45.5 °F 43 °F 29.8 in SW 0.9 mph 1 mph 91% 0.01 in 174 W/m2
16:18 45.5 °F 43 °F 29.8 in SE 0.9 mph 3 mph 91% 0 in 188 W/m2
16:23 45.5 °F 43 °F 29.8 in ENE 0.9 mph 2 mph 91% 0 in 218 W/m2
16:28 45.3 °F 42.6 °F 29.8 in Calm   2 mph 90% 0 in 227 W/m2
16:33 45.5 °F 42.8 °F 29.8 in Calm   3 mph 90% 0 in 229 W/m2
16:38 45.5 °F 42.4 °F 29.8 in ENE 2.9 mph 4 mph 89% 0 in 227 W/m2
16:43 45.7 °F 42.6 °F 29.8 in East 4 mph 4 mph 89% 0 in 225 W/m2
16:49 45.5 °F 42.1 °F 29.8 in ENE 0.9 mph 3 mph 88% 0 in 199 W/m2
16:54 45.7 °F 42.3 °F 29.8 in ESE 0.9 mph 2 mph 88% 0 in 199 W/m2
16:59 45.9 °F 42.8 °F 29.8 in Calm   2 mph 89% 0 in 171 W/m2
17:04 46 °F 43 °F 29.8 in Calm   2 mph 89% 0 in 141 W/m2
17:09 46 °F 42.6 °F 29.8 in East 2 mph 2 mph 88% 0 in 139 W/m2
17:14 45.9 °F 42.3 °F 29.8 in Calm   2 mph 87% 0 in 160 W/m2
17:19 45.9 °F 42.4 °F 29.8 in Calm   2 mph 88% 0 in 188 W/m2
17:24 46 °F 42.6 °F 29.8 in Calm     88% 0 in 192 W/m2
17:29 46 °F 42.6 °F 29.8 in ESE 2 mph 3 mph 88% 0 in 206 W/m2
17:34 46.2 °F 42.8 °F 29.8 in Calm   1 mph 88% 0 in 200 W/m2
17:39 46.2 °F 42.6 °F 29.8 in ESE 0.9 mph 3 mph 87% 0 in 183 W/m2
17:44 46.2 °F 41.9 °F 29.8 in Calm   2 mph 85% 0 in 202 W/m2
17:49 46.6 °F 43 °F 29.8 in Calm   1 mph 87% 0 in 234 W/m2
17:54 46.6 °F 42.3 °F 29.8 in East 0.9 mph 2 mph 85% 0 in 237 W/m2
17:59 46.6 °F 42.1 °F 29.8 in SE 2 mph 2 mph 84% 0 in 260 W/m2
18:04 46.8 °F 42.3 °F 29.8 in Calm   2 mph 84% 0 in 239 W/m2
18:09 47.1 °F 42.6 °F 29.8 in SE 0.9 mph 1 mph 84% 0 in 221 W/m2
18:14 47.3 °F 43 °F 29.8 in ESE 0.9 mph 2 mph 85% 0 in 213 W/m2
18:19 47.3 °F 42.4 °F 29.8 in Calm   2 mph 83% 0 in 378 W/m2
18:24 47.7 °F 43 °F 29.8 in Calm   3 mph 84% 0 in 294 W/m2
18:29 48 °F 43.3 °F 29.8 in Calm     84% 0 in 411 W/m2
18:34 48.4 °F 43.7 °F 29.8 in Calm   2 mph 84% 0 in 404 W/m2
18:39 48.7 °F 43.9 °F 29.8 in SE 0.9 mph 1 mph 83% 0 in 385 W/m2
18:44 49.3 °F 44.6 °F 29.8 in Calm   2 mph 84% 0 in 236 W/m2
18:49 49.5 °F 44.2 °F 29.8 in ESE 0.9 mph 4 mph 82% 0 in 417 W/m2
18:54 49.5 °F 43.5 °F 29.8 in East 2 mph 3 mph 80% 0 in 338 W/m2
18:59 49.5 °F 43.9 °F 29.8 in East 0.9 mph 2 mph 81% 0 in 221 W/m2
19:04 49.5 °F 44.2 °F 29.8 in ESE 0.9 mph 1 mph 82% 0 in 116 W/m2
19:09 49.5 °F 44.2 °F 29.8 in ESE 0.9 mph 1 mph 82% 0 in 105 W/m2
19:14 49.3 °F 44.1 °F 29.8 in Calm   1 mph 82% 0 in 123 W/m2
19:19 49.3 °F 44.6 °F 29.8 in Calm   1 mph 84% 0 in 121 W/m2
19:24 49.3 °F 45 °F 29.8 in Calm   1 mph 85% 0 in 95 W/m2
19:29 49.3 °F 45 °F 29.8 in Calm   1 mph 85% 0 in 54 W/m2
19:34 48.9 °F 44.6 °F 29.8 in Calm   1 mph 85% 0 in 42 W/m2
19:39 48.7 °F 44.8 °F 29.8 in Calm     86% 0 in 47 W/m2
19:44 48.2 °F 43.9 °F 29.8 in Calm   2 mph 85% 0 in 49 W/m2
19:49 47.5 °F 43.5 °F 29.9 in Calm   2 mph 86% 0 in 37 W/m2
19:54 46.9 °F 43.3 °F 29.9 in West 2 mph 3 mph 87% 0 in 70 W/m2
19:59 46.6 °F 43.2 °F 29.9 in West 0.9 mph 2 mph 88% 0 in 63 W/m2
20:04 46.6 °F 43.2 °F 29.9 in WNW 2 mph 2 mph 88% 0 in 105 W/m2
20:09 46.9 °F 43.9 °F 29.9 in WNW 0.9 mph 1 mph 89% 0 in 91 W/m2
20:14 47.1 °F 44.1 °F 29.9 in NW 0.9 mph 2 mph 89% 0 in 74 W/m2
20:19 47.3 °F 44.2 °F 29.9 in Calm     89% 0 in 44 W/m2
20:24 47.5 °F 44.4 °F 29.9 in Calm   2 mph 89% 0 in 39 W/m2
20:29 47.3 °F 44.2 °F 29.9 in Calm   1 mph 89% 0 in 32 W/m2
20:35 47.1 °F 44.1 °F 29.9 in Calm   1 mph 89% 0 in 32 W/m2
20:40 46.8 °F 43.7 °F 29.9 in NW 0.9 mph 2 mph 89% 0 in 23 W/m2
20:45 46.6 °F 43.9 °F 29.9 in Calm   1 mph 90% 0 in 18 W/m2
20:50 46.2 °F 43.5 °F 29.9 in Calm   2 mph 90% 0 in 14 W/m2
20:55 46 °F 43.3 °F 29.9 in Calm   1 mph 90% 0 in 11 W/m2
21:00 45.9 °F 43.3 °F 29.9 in Calm     91% 0 in 9 W/m2
21:05 45.5 °F 42.8 °F 29.9 in Calm   2 mph 90% 0 in 5 W/m2
21:10 45.1 °F 42.4 °F 29.9 in NW 2 mph 2 mph 90% 0 in 0 W/m2
21:15 44.8 °F 42.3 °F 29.9 in NW 0.9 mph 2 mph 91% 0 in 0 W/m2
21:20 44.2 °F 41.7 °F 29.9 in NW 0.9 mph 2 mph 91% 0 in 0 W/m2
21:25 44.1 °F 41.5 °F 29.9 in NW 0.9 mph 1 mph 91% 0 in 0 W/m2
21:30 43.9 °F 41.7 °F 29.9 in Calm     92% 0 in 0 W/m2
21:35 43.5 °F 41.4 °F 29.9 in NW 0.9 mph 1 mph 92% 0 in 0 W/m2
21:40 43.3 °F 41.2 °F 29.9 in Calm   1 mph 92% 0 in 0 W/m2
21:45 43.2 °F 41.4 °F 29.9 in Calm     93% 0 in 0 W/m2
21:50 43.2 °F 41.4 °F 29.9 in NW 0.9 mph 2 mph 93% 0 in 0 W/m2
21:56 43.2 °F 41.4 °F 29.9 in NW 0.9 mph 1 mph 93% 0 in 0 W/m2
22:01 43 °F 41.2 °F 29.9 in WNW 0.9 mph 1 mph 93% 0 in 0 W/m2
22:06 43 °F 41.2 °F 29.9 in WNW 2 mph 2 mph 93% 0 in 0 W/m2
22:11 42.8 °F 41.2 °F 29.9 in SSW 0.9 mph 2 mph 94% 0 in 0 W/m2
22:16 42.6 °F 41 °F 29.9 in Calm     94% 0 in 0 W/m2
22:21 42.4 °F 40.6 °F 29.9 in SSW 0.9 mph 1 mph 93% 0 in 0 W/m2
22:26 42.3 °F 40.6 °F 29.9 in Calm   1 mph 94% 0 in 0 W/m2
22:31 42.1 °F 40.5 °F 29.9 in Calm     94% 0 in 0 W/m2
22:36 41.9 °F 40.3 °F 29.9 in Calm   1 mph 94% 0 in 0 W/m2
22:41 41.7 °F 40.1 °F 29.9 in Calm   2 mph 94% 0 in 0 W/m2
22:46 41.5 °F 39.9 °F 30 in Calm   2 mph 94% 0 in 0 W/m2
22:51 41.4 °F 39.7 °F 30 in Calm   1 mph 94% 0 in 0 W/m2
22:56 41.4 °F 39.7 °F 30 in SSW 0.9 mph 2 mph 94% 0 in 0 W/m2
23:01 41.2 °F 39.6 °F 30 in Calm     94% 0 in 0 W/m2
23:06 41.2 °F 39.9 °F 30 in Calm     95% 0 in 0 W/m2
23:11 41.2 °F 39.6 °F 30 in WSW 0.9 mph 1 mph 94% 0 in 0 W/m2
23:16 40.8 °F 39.2 °F 30 in Calm   2 mph 94% 0 in 0 W/m2
23:22 40.8 °F 39.6 °F 30 in Calm   1 mph 95% 0 in 0 W/m2
23:27 40.6 °F 39.4 °F 30 in Calm   2 mph 95% 0 in 0 W/m2
23:32 40.5 °F 38.8 °F 30 in Calm     94% 0 in 0 W/m2
23:37 40.5 °F 39.2 °F 30 in Calm   1 mph 95% 0 in 0 W/m2
23:42 40.5 °F 39.2 °F 30 in Calm     95% 0 in 0 W/m2
23:47 40.3 °F 39 °F 30 in Calm     95% 0 in 0 W/m2
23:52 40.1 °F 38.8 °F 30 in Calm     95% 0 in 0 W/m2
23:57 39.9 °F 38.7 °F 30 in Calm     95% 0 in 0 W/m2
Juneau County Weather
Compliments of Weather Underground - 2 mb